createdAt,value
2023-02-27T00:00:58.634Z,4.20
2023-02-27T00:03:27.080Z,4.07
2023-02-27T00:05:56.257Z,3.75
2023-02-27T00:08:24.595Z,3.35
2023-02-27T00:10:52.803Z,3.85
2023-02-27T00:13:21.171Z,3.80
2023-02-27T00:15:50.321Z,4.03
2023-02-27T00:18:19.831Z,4.30
2023-02-27T00:20:48.450Z,3.83
2023-02-27T00:23:16.862Z,3.00
2023-02-27T00:25:45.437Z,3.28
2023-02-27T00:28:13.505Z,3.58
2023-02-27T00:30:41.802Z,3.47
2023-02-27T00:33:10.057Z,2.67
2023-02-27T00:35:39.528Z,3.67
2023-02-27T00:38:07.589Z,3.30
2023-02-27T00:40:36.404Z,2.95
2023-02-27T00:43:04.608Z,4.25
2023-02-27T00:45:32.776Z,3.38
2023-02-27T00:48:00.975Z,3.78
2023-02-27T00:50:29.025Z,2.80
2023-02-27T00:53:00.890Z,3.42
2023-02-27T00:55:28.956Z,3.67
2023-02-27T00:57:57.100Z,3.38
2023-02-27T01:00:25.509Z,3.20
2023-02-27T01:02:53.681Z,3.30
2023-02-27T01:05:21.805Z,3.70
2023-02-27T01:07:50.034Z,3.13
2023-02-27T01:10:19.635Z,4.05
2023-02-27T01:12:47.751Z,3.55
2023-02-27T01:15:15.869Z,3.40
2023-02-27T01:17:44.172Z,3.25
2023-02-27T01:20:14.022Z,3.22
2023-02-27T01:22:42.345Z,3.10
2023-02-27T01:25:11.061Z,3.08
2023-02-27T01:27:40.788Z,3.10
2023-02-27T01:30:11.460Z,3.63
2023-02-27T01:32:39.835Z,2.78
2023-02-27T01:35:08.629Z,3.65
2023-02-27T01:37:36.614Z,3.13
2023-02-27T01:40:07.005Z,2.95
2023-02-27T01:42:35.136Z,3.80
2023-02-27T01:45:32.842Z,3.10
2023-02-27T01:48:06.210Z,2.92
2023-02-27T01:50:36.277Z,3.00
2023-02-27T01:53:06.173Z,3.10
2023-02-27T01:55:38.935Z,3.58
2023-02-27T01:58:08.489Z,3.63
2023-02-27T02:00:38.632Z,3.88
2023-02-27T02:03:14.349Z,3.40
2023-02-27T02:05:43.992Z,3.40
2023-02-27T02:08:14.271Z,3.60
2023-02-27T02:10:42.795Z,3.97
2023-02-27T02:13:11.221Z,4.30
2023-02-27T02:15:48.678Z,3.30
2023-02-27T02:18:22.947Z,3.17
2023-02-27T02:21:45.326Z,3.67
2023-02-27T02:24:49.080Z,2.40
2023-02-27T02:27:33.142Z,2.88
2023-02-27T02:30:43.499Z,3.47
2023-02-27T02:33:48.350Z,2.42
2023-02-27T02:36:57.489Z,3.88
2023-02-27T02:39:50.636Z,2.65
2023-02-27T02:42:23.415Z,3.72
2023-02-27T02:45:05.313Z,3.15
2023-02-27T02:47:40.567Z,3.15
2023-02-27T02:50:14.962Z,2.90
2023-02-27T02:52:59.153Z,3.53
2023-02-27T02:55:34.606Z,2.63
2023-02-27T02:58:08.351Z,3.40
2023-02-27T03:00:41.703Z,3.72
2023-02-27T03:03:14.072Z,2.92
2023-02-27T03:08:16.067Z,2.83
2023-02-27T03:10:50.558Z,2.83
2023-02-27T03:13:25.787Z,2.58
2023-02-27T03:16:00.391Z,2.97
2023-02-27T03:18:36.199Z,3.60
2023-02-27T03:21:08.482Z,3.42
2023-02-27T03:23:42.206Z,3.05
2023-02-27T03:26:15.362Z,3.40
2023-02-27T03:28:54.841Z,2.95
2023-02-27T03:31:29.054Z,3.15
2023-02-27T03:34:01.665Z,2.25
2023-02-27T03:39:07.526Z,2.67
2023-02-27T03:41:42.608Z,3.33
2023-02-27T03:44:15.989Z,3.10
2023-02-27T03:46:44.060Z,3.25
2023-02-27T03:49:12.262Z,4.00
2023-02-27T03:51:40.360Z,3.83
2023-02-27T03:54:12.774Z,3.25
2023-02-27T03:59:11.340Z,2.65
2023-02-27T04:01:39.862Z,3.40
2023-02-27T04:04:14.609Z,2.70
2023-02-27T04:07:04.823Z,3.28
2023-02-27T04:09:45.814Z,3.50
2023-02-27T04:12:31.760Z,2.55
2023-02-27T04:15:14.717Z,2.67
2023-02-27T04:17:53.791Z,3.40
2023-02-27T04:20:41.896Z,3.38
2023-02-27T04:23:18.322Z,3.20
2023-02-27T04:25:56.239Z,3.40
2023-02-27T04:28:34.156Z,3.42
2023-02-27T04:31:09.406Z,3.70
2023-02-27T04:33:44.848Z,3.33
2023-02-27T04:36:19.499Z,3.80
2023-02-27T04:38:52.512Z,3.45
2023-02-27T04:41:24.671Z,3.38
2023-02-27T04:46:26.577Z,3.40
2023-02-27T04:49:00.644Z,3.65
2023-02-27T04:51:34.143Z,2.80
2023-02-27T04:54:07.851Z,2.70
2023-02-27T04:56:39.493Z,3.10
2023-02-27T04:59:14.077Z,3.17
2023-02-27T05:01:46.229Z,3.30
2023-02-27T05:04:17.017Z,3.58
2023-02-27T05:06:46.690Z,3.25
2023-02-27T05:09:21.356Z,4.22
2023-02-27T05:11:54.556Z,3.08
2023-02-27T05:14:30.228Z,3.33
2023-02-27T05:17:04.437Z,3.63
2023-02-27T05:19:33.847Z,3.58
2023-02-27T05:22:12.978Z,3.55
2023-02-27T05:24:50.961Z,3.10
2023-02-27T05:27:25.862Z,3.45
2023-02-27T05:30:00.546Z,3.30
2023-02-27T05:32:38.093Z,3.45
2023-02-27T05:35:14.353Z,3.10
2023-02-27T05:37:46.591Z,3.85
2023-02-27T05:40:18.935Z,4.10
2023-02-27T05:45:21.740Z,4.00
2023-02-27T05:47:56.662Z,3.25
2023-02-27T05:50:28.785Z,3.83
2023-02-27T05:53:00.866Z,3.40
2023-02-27T05:55:33.604Z,3.78
2023-02-27T05:58:08.306Z,3.70
2023-02-27T06:00:42.286Z,4.00
2023-02-27T06:03:10.928Z,4.22
2023-02-27T06:05:40.180Z,4.32
2023-02-27T06:08:15.110Z,4.60
2023-02-27T06:10:46.586Z,4.07
2023-02-27T06:13:18.975Z,5.40
2023-02-27T06:15:56.260Z,4.85
2023-02-27T06:18:37.891Z,5.20
2023-02-27T06:21:14.690Z,3.37
2023-02-27T06:23:45.368Z,3.67
2023-02-27T06:26:16.715Z,3.78
2023-02-27T06:28:45.005Z,4.07
2023-02-27T06:31:18.347Z,3.90
2023-02-27T06:33:46.741Z,3.33
2023-02-27T06:36:17.223Z,3.40
2023-02-27T06:38:45.646Z,3.92
2023-02-27T06:41:14.176Z,3.63
2023-02-27T06:43:45.874Z,3.40
2023-02-27T06:46:19.771Z,3.22
2023-02-27T06:48:51.406Z,3.58
2023-02-27T06:51:22.431Z,3.60
2023-02-27T06:53:56.594Z,2.67
2023-02-27T06:56:29.594Z,3.60
2023-02-27T06:58:59.722Z,3.00
2023-02-27T07:01:30.286Z,2.95
2023-02-27T07:04:01.625Z,2.63
2023-02-27T07:07:34.109Z,2.20
2023-02-27T07:09:25.494Z,2.30
2023-02-27T07:11:54.160Z,3.13
2023-02-27T07:14:25.776Z,2.92
2023-02-27T07:17:04.582Z,3.50
2023-02-27T07:19:38.109Z,3.17
2023-02-27T07:22:06.555Z,3.00
2023-02-27T07:24:46.691Z,3.50
2023-02-27T07:27:16.586Z,3.17
2023-02-27T07:29:44.971Z,3.33
2023-02-27T07:32:16.422Z,2.95
2023-02-27T07:34:46.469Z,4.78
2023-02-27T07:37:19.126Z,3.13
2023-02-27T07:39:47.617Z,3.80
2023-02-27T07:42:19.311Z,4.68
2023-02-27T07:44:47.674Z,4.20
2023-02-27T07:47:19.020Z,3.47
2023-02-27T07:49:52.207Z,3.95
2023-02-27T07:52:25.757Z,3.30
2023-02-27T07:54:54.366Z,3.63
2023-02-27T07:57:25.525Z,3.45
2023-02-27T07:59:55.553Z,3.35
2023-02-27T08:02:31.327Z,3.20
2023-02-27T08:05:06.584Z,4.15
2023-02-27T08:07:37.845Z,3.90
2023-02-27T08:10:07.027Z,4.30
2023-02-27T08:12:35.566Z,3.63
2023-02-27T08:15:04.163Z,3.00
2023-02-27T08:17:32.670Z,3.97
2023-02-27T08:20:04.895Z,3.75
2023-02-27T08:22:36.918Z,3.53
2023-02-27T08:25:07.016Z,3.58
2023-02-27T08:27:50.201Z,3.00
2023-02-27T08:30:25.826Z,4.47
2023-02-27T08:32:57.312Z,3.83
2023-02-27T08:35:25.866Z,3.53
2023-02-27T08:38:00.048Z,3.30
2023-02-27T08:40:28.292Z,3.60
2023-02-27T08:42:56.626Z,3.70
2023-02-27T08:45:34.118Z,3.28
2023-02-27T08:48:02.446Z,2.97
2023-02-27T08:50:30.611Z,3.22
2023-02-27T08:53:00.265Z,3.28
2023-02-27T08:55:29.200Z,3.30
2023-02-27T08:57:59.549Z,3.40
2023-02-27T09:00:32.473Z,2.70
2023-02-27T09:03:01.332Z,3.20
2023-02-27T09:05:29.994Z,3.50
2023-02-27T09:07:59.629Z,3.45
2023-02-27T09:10:28.095Z,3.05
2023-02-27T09:12:56.360Z,3.35
2023-02-27T09:15:26.125Z,4.22
2023-02-27T09:18:00.220Z,4.38
2023-02-27T09:20:28.441Z,3.90
2023-02-27T09:23:00.141Z,3.13
2023-02-27T09:25:44.827Z,2.80
2023-02-27T09:28:13.282Z,4.07
2023-02-27T09:30:41.553Z,3.50
2023-02-27T09:33:10.287Z,3.65
2023-02-27T09:35:38.686Z,3.03
2023-02-27T09:38:09.983Z,3.40
2023-02-27T09:40:49.751Z,3.67
2023-02-27T09:43:26.269Z,4.32
2023-02-27T09:45:58.593Z,3.22
2023-02-27T09:48:33.611Z,4.32
2023-02-27T09:51:05.689Z,4.40
2023-02-27T09:53:39.085Z,3.17
2023-02-27T09:56:17.749Z,3.65
2023-02-27T09:59:19.783Z,4.18
2023-02-27T10:02:23.510Z,3.55
2023-02-27T10:05:24.714Z,3.35
2023-02-27T10:08:32.462Z,2.97
2023-02-27T10:11:06.202Z,2.90
2023-02-27T10:13:59.100Z,4.20
2023-02-27T10:16:36.382Z,3.55
2023-02-27T10:19:19.648Z,4.32
2023-02-27T10:21:51.965Z,4.00
2023-02-27T10:24:27.648Z,3.63
2023-02-27T10:27:03.967Z,3.28
2023-02-27T10:29:39.835Z,3.70
2023-02-27T10:32:19.891Z,3.30
2023-02-27T10:34:52.301Z,3.60
2023-02-27T10:37:25.401Z,3.78
2023-02-27T10:39:57.375Z,4.25
2023-02-27T10:42:35.621Z,4.38
2023-02-27T10:45:12.441Z,4.63
2023-02-27T10:47:46.071Z,4.95
2023-02-27T10:50:27.407Z,4.60
2023-02-27T10:53:05.900Z,4.18
2023-02-27T10:55:39.384Z,4.00
2023-02-27T10:58:21.815Z,4.65
2023-02-27T11:00:58.288Z,5.13
2023-02-27T11:03:39.303Z,4.47
2023-02-27T11:06:14.050Z,4.70
2023-02-27T11:08:45.884Z,3.65
2023-02-27T11:11:30.042Z,3.63
2023-02-27T11:14:25.129Z,3.75
2023-02-27T11:16:57.983Z,3.40
2023-02-27T11:19:37.865Z,3.83
2023-02-27T11:22:09.005Z,2.67
2023-02-27T11:24:38.183Z,3.53
2023-02-27T11:27:22.146Z,2.78
2023-02-27T11:30:04.725Z,2.90
2023-02-27T11:32:38.413Z,3.67
2023-02-27T11:35:25.807Z,3.83
2023-02-27T11:37:56.428Z,4.20
2023-02-27T11:40:34.535Z,4.25
2023-02-27T11:43:11.033Z,3.70
2023-02-27T11:46:17.627Z,4.20
2023-02-27T11:48:39.623Z,3.67
2023-02-27T11:51:29.660Z,3.15
2023-02-27T11:54:32.538Z,4.07
2023-02-27T11:57:04.952Z,3.70
2023-02-27T11:59:44.791Z,3.85
2023-02-27T12:02:20.475Z,3.15
2023-02-27T12:04:57.974Z,3.30
2023-02-27T12:07:40.054Z,3.42
2023-02-27T12:10:15.652Z,3.40
2023-02-27T12:12:49.142Z,3.20
2023-02-27T12:15:27.029Z,3.17
2023-02-27T12:18:08.240Z,3.15
2023-02-27T12:20:47.420Z,2.70
2023-02-27T12:23:22.151Z,2.83
2023-02-27T12:25:53.843Z,3.10
2023-02-27T12:28:41.989Z,2.88
2023-02-27T12:31:39.700Z,2.92
2023-02-27T12:34:26.040Z,3.45
2023-02-27T12:36:54.793Z,3.03
2023-02-27T12:39:25.905Z,2.97
2023-02-27T12:42:12.835Z,3.40
2023-02-27T12:45:03.119Z,3.63
2023-02-27T12:47:38.421Z,2.30
2023-02-27T12:50:11.674Z,2.53
2023-02-27T12:52:50.913Z,2.70
2023-02-27T12:55:24.023Z,2.42
2023-02-27T12:58:19.121Z,3.20
2023-02-27T13:00:50.201Z,2.40
2023-02-27T13:03:24.726Z,2.42
2023-02-27T13:06:01.574Z,2.83
2023-02-27T13:08:55.868Z,2.58
2023-02-27T13:11:36.494Z,2.60
2023-02-27T13:14:12.223Z,2.72
2023-02-27T13:16:45.045Z,2.10
2023-02-27T13:19:16.835Z,2.75
2023-02-27T13:21:52.470Z,2.33
2023-02-27T13:24:26.558Z,2.72
2023-02-27T13:27:00.658Z,2.50
2023-02-27T13:29:36.945Z,2.60
2023-02-27T13:32:25.160Z,2.65
2023-02-27T13:35:08.151Z,3.45
2023-02-27T13:37:53.464Z,2.90
2023-02-27T13:40:33.019Z,2.83
2023-02-27T13:43:06.340Z,2.42
2023-02-27T13:45:57.068Z,2.15
2023-02-27T13:48:46.132Z,3.30
2023-02-27T13:51:42.390Z,2.63
2023-02-27T13:54:27.584Z,2.70
2023-02-27T13:57:22.321Z,3.20
2023-02-27T14:00:00.491Z,2.80
2023-02-27T14:02:59.473Z,2.80
2023-02-27T14:05:32.034Z,2.95
2023-02-27T14:08:06.272Z,2.78
2023-02-27T14:10:37.082Z,2.50
2023-02-27T14:13:05.551Z,3.00
2023-02-27T14:16:00.464Z,2.78
2023-02-27T14:18:52.280Z,2.63
2023-02-27T14:21:54.355Z,2.38
2023-02-27T14:24:27.136Z,2.17
2023-02-27T14:26:56.048Z,2.53
2023-02-27T14:29:30.965Z,1.75
2023-02-27T14:32:03.850Z,2.60
2023-02-27T14:34:32.263Z,2.30
2023-02-27T14:37:03.144Z,2.80
2023-02-27T14:39:34.244Z,2.60
2023-02-27T14:42:31.313Z,3.40
2023-02-27T14:44:59.566Z,1.92
2023-02-27T14:47:33.053Z,2.58
2023-02-27T14:50:02.139Z,2.50
2023-02-27T14:52:32.315Z,2.28
2023-02-27T14:55:17.870Z,2.50
2023-02-27T14:57:56.044Z,2.60
2023-02-27T15:00:35.903Z,1.85
2023-02-27T15:03:22.516Z,2.60
2023-02-27T15:05:53.084Z,2.95
2023-02-27T15:08:23.846Z,2.90
2023-02-27T15:11:14.889Z,3.00
2023-02-27T15:14:06.296Z,2.25
2023-02-27T15:16:58.856Z,2.58
2023-02-27T15:21:59.637Z,2.88
2023-02-27T15:24:35.227Z,2.80
2023-02-27T15:27:15.994Z,2.80
2023-02-27T15:29:46.308Z,2.65
2023-02-27T15:32:19.633Z,2.75
2023-02-27T15:34:49.940Z,2.70
2023-02-27T15:37:21.936Z,3.08
2023-02-27T15:39:51.364Z,3.17
2023-02-27T15:42:21.118Z,4.20
2023-02-27T15:44:49.873Z,6.97
2023-02-27T15:47:23.840Z,5.43
2023-02-27T15:49:57.170Z,4.28
2023-02-27T15:52:28.052Z,3.42
2023-02-27T15:55:02.492Z,4.13
2023-02-27T15:57:31.046Z,4.97
2023-02-27T16:00:01.258Z,4.28
2023-02-27T16:02:32.438Z,4.05
2023-02-27T16:05:01.989Z,3.33
2023-02-27T16:07:34.669Z,2.92
2023-02-27T16:10:15.099Z,2.65
2023-02-27T16:12:44.472Z,3.78
2023-02-27T16:15:28.751Z,3.47
2023-02-27T16:18:00.458Z,2.72
2023-02-27T16:20:38.401Z,3.05
2023-02-27T16:23:08.523Z,2.47
2023-02-27T16:25:37.194Z,4.15
2023-02-27T16:28:05.510Z,2.78
2023-02-27T16:30:33.556Z,2.75
2023-02-27T16:33:02.859Z,3.35
2023-02-27T16:35:33.341Z,2.97
2023-02-27T16:38:03.450Z,3.50
2023-02-27T16:40:31.534Z,3.28
2023-02-27T16:43:01.329Z,3.67
2023-02-27T16:45:31.124Z,3.47
2023-02-27T16:48:00.743Z,3.42
2023-02-27T16:50:31.631Z,3.50
2023-02-27T16:53:01.310Z,3.38
2023-02-27T16:55:32.502Z,3.75
2023-02-27T16:58:01.396Z,3.50
2023-02-27T17:00:29.539Z,3.15
2023-02-27T17:02:57.605Z,3.20
2023-02-27T17:05:26.326Z,3.38
2023-02-27T17:07:54.353Z,3.40
2023-02-27T17:10:25.420Z,4.40
2023-02-27T17:12:53.836Z,3.22
2023-02-27T17:15:22.002Z,3.90
2023-02-27T17:17:50.027Z,3.42
2023-02-27T17:20:18.133Z,7.18
2023-02-27T17:22:46.191Z,5.25
2023-02-27T17:25:14.875Z,4.53
2023-02-27T17:27:45.344Z,3.38
2023-02-27T17:30:15.308Z,4.18
2023-02-27T17:32:43.279Z,3.35
2023-02-27T17:35:11.488Z,3.88
2023-02-27T17:37:39.793Z,4.28
2023-02-27T17:40:09.103Z,4.22
2023-02-27T17:42:37.544Z,3.72
2023-02-27T17:45:08.689Z,3.03
2023-02-27T17:47:37.434Z,3.83
2023-02-27T17:50:06.217Z,3.60
2023-02-27T17:52:36.586Z,4.32
2023-02-27T17:55:04.743Z,3.60
2023-02-27T17:57:35.523Z,3.42
2023-02-27T18:00:04.970Z,4.50
2023-02-27T18:02:34.350Z,4.35
2023-02-27T18:05:02.362Z,3.88
2023-02-27T18:07:30.421Z,3.85
2023-02-27T18:09:58.433Z,3.97
2023-02-27T18:12:26.532Z,3.65
2023-02-27T18:14:54.713Z,4.50
2023-02-27T18:17:22.876Z,4.05
2023-02-27T18:19:52.223Z,3.47
2023-02-27T18:22:21.712Z,2.85
2023-02-27T18:24:50.082Z,3.83
2023-02-27T18:27:18.219Z,4.53
2023-02-27T18:29:46.372Z,5.38
2023-02-27T18:32:14.412Z,4.28
2023-02-27T18:34:43.439Z,4.35
2023-02-27T18:37:12.742Z,5.07
2023-02-27T18:39:42.128Z,4.28
2023-02-27T18:42:10.056Z,4.53
2023-02-27T18:44:40.716Z,4.47
2023-02-27T18:47:09.599Z,4.55
2023-02-27T18:49:37.797Z,3.70
2023-02-27T18:52:05.776Z,4.18
2023-02-27T18:54:36.131Z,4.80
2023-02-27T18:57:04.718Z,4.57
2023-02-27T18:59:32.771Z,4.60
2023-02-27T19:02:01.410Z,4.57
2023-02-27T19:04:32.712Z,5.20
2023-02-27T19:07:00.818Z,4.85
2023-02-27T19:09:32.654Z,4.68
2023-02-27T19:12:02.148Z,4.90
2023-02-27T19:14:30.219Z,4.55
2023-02-27T19:17:00.466Z,4.18
2023-02-27T19:19:28.898Z,4.78
2023-02-27T19:21:57.384Z,4.53
2023-02-27T19:24:26.013Z,5.15
2023-02-27T19:26:54.044Z,4.57
2023-02-27T19:29:23.573Z,4.78
2023-02-27T19:31:51.743Z,5.03
2023-02-27T19:34:19.757Z,5.00
2023-02-27T19:36:47.818Z,5.22
2023-02-27T19:39:15.797Z,5.78
2023-02-27T19:41:43.881Z,4.50
2023-02-27T19:44:12.192Z,5.20
2023-02-27T19:46:42.147Z,4.75
2023-02-27T19:49:11.238Z,5.10
2023-02-27T19:51:41.491Z,4.43
2023-02-27T19:54:13.573Z,5.15
2023-02-27T19:56:41.847Z,7.57
2023-02-27T19:59:11.279Z,4.75
2023-02-27T20:01:39.824Z,5.80
2023-02-27T20:04:11.061Z,6.05
2023-02-27T20:06:42.624Z,6.13
2023-02-27T20:09:13.265Z,6.03
2023-02-27T20:11:41.283Z,6.65
2023-02-27T20:14:09.592Z,5.32
2023-02-27T20:16:37.812Z,5.70
2023-02-27T20:19:06.851Z,5.38
2023-02-27T20:21:36.245Z,5.57
2023-02-27T20:24:04.813Z,6.03
2023-02-27T20:26:34.909Z,6.10
2023-02-27T20:29:05.287Z,7.00
2023-02-27T20:31:36.457Z,5.88
2023-02-27T20:34:06.237Z,5.82
2023-02-27T20:36:34.660Z,5.53
2023-02-27T20:39:05.207Z,6.95
2023-02-27T20:41:34.810Z,5.05
2023-02-27T20:44:02.942Z,5.72
2023-02-27T20:46:31.688Z,5.82
2023-02-27T20:49:01.570Z,5.57
2023-02-27T20:51:31.676Z,5.38
2023-02-27T20:54:00.889Z,5.38
2023-02-27T20:56:32.914Z,5.30
2023-02-27T20:59:05.061Z,5.55
2023-02-27T21:01:33.478Z,4.97
2023-02-27T21:04:02.673Z,5.38
2023-02-27T21:06:33.204Z,5.55
2023-02-27T21:09:05.615Z,5.22
2023-02-27T21:14:05.448Z,4.90
2023-02-27T21:16:34.044Z,5.68
2023-02-27T21:19:02.354Z,4.47
2023-02-27T21:21:33.113Z,5.00
2023-02-27T21:24:01.825Z,4.90
2023-02-27T21:26:34.629Z,3.90
2023-02-27T21:29:07.236Z,4.57
2023-02-27T21:31:36.188Z,4.60
2023-02-27T21:34:07.114Z,3.72
2023-02-27T21:36:38.236Z,4.68
2023-02-27T21:39:09.901Z,4.80
2023-02-27T21:41:38.049Z,4.47
2023-02-27T21:44:08.723Z,4.43
2023-02-27T21:46:36.698Z,3.92
2023-02-27T21:49:05.185Z,4.43
2023-02-27T21:51:40.529Z,3.75
2023-02-27T21:54:11.537Z,4.38
2023-02-27T21:56:40.478Z,4.82
2023-02-27T21:59:11.102Z,3.65
2023-02-27T22:01:39.862Z,3.70
2023-02-27T22:04:08.386Z,4.07
2023-02-27T22:06:36.550Z,3.60
2023-02-27T22:09:06.588Z,4.40
2023-02-27T22:11:35.365Z,3.78
2023-02-27T22:14:03.659Z,2.72
2023-02-27T22:16:32.938Z,4.05
2023-02-27T22:19:01.047Z,4.07
2023-02-27T22:21:29.323Z,3.75
2023-02-27T22:23:58.273Z,3.25
2023-02-27T22:26:29.151Z,3.28
2023-02-27T22:28:57.932Z,3.55
2023-02-27T22:31:27.066Z,4.05
2023-02-27T22:33:59.826Z,3.85
2023-02-27T22:36:30.117Z,3.65
2023-02-27T22:38:58.844Z,3.70
2023-02-27T22:41:29.708Z,4.40
2023-02-27T22:43:58.362Z,4.25
2023-02-27T22:46:28.665Z,3.22
2023-02-27T22:49:01.643Z,3.05
2023-02-27T22:51:30.531Z,3.47
2023-02-27T22:54:01.785Z,3.63
2023-02-27T22:56:30.187Z,4.05
2023-02-27T22:58:58.178Z,3.13
2023-02-27T23:01:28.656Z,3.45
2023-02-27T23:04:00.519Z,3.38
2023-02-27T23:06:31.396Z,3.17
2023-02-27T23:08:59.941Z,2.50
2023-02-27T23:11:28.681Z,2.83
2023-02-27T23:13:57.063Z,3.03
2023-02-27T23:16:25.406Z,2.45
2023-02-27T23:18:55.071Z,2.67
2023-02-27T23:21:26.401Z,2.88
2023-02-27T23:23:54.600Z,2.40
2023-02-27T23:26:22.926Z,2.70
2023-02-27T23:28:51.194Z,2.75
2023-02-27T23:31:19.201Z,2.95
2023-02-27T23:33:47.235Z,2.38
2023-02-27T23:36:15.364Z,2.40
2023-02-27T23:38:46.648Z,2.53
2023-02-27T23:41:17.403Z,2.40
2023-02-27T23:43:57.756Z,2.60
2023-02-27T23:46:30.157Z,2.53
2023-02-27T23:51:29.099Z,1.98
2023-02-27T23:53:59.786Z,2.72
2023-02-27T23:56:29.927Z,2.53
2023-02-27T23:58:59.988Z,2.63
